createdAt,value
2023-02-13T00:01:39.306Z,103874.28
2023-02-13T00:04:34.879Z,103870.75
2023-02-13T00:07:01.360Z,103872.78
2023-02-13T00:09:28.744Z,103872.78
2023-02-13T00:11:55.243Z,103872.78
2023-02-13T00:14:21.790Z,103865.69
2023-02-13T00:16:48.244Z,103868.41
2023-02-13T00:19:30.354Z,103864.00
2023-02-13T00:22:10.191Z,103862.31
2023-02-13T00:24:45.927Z,103867.38
2023-02-13T00:27:27.438Z,103862.00
2023-02-13T00:29:53.822Z,103862.66
2023-02-13T00:32:25.590Z,103857.41
2023-02-13T00:35:20.912Z,103858.28
2023-02-13T00:37:47.471Z,103855.59
2023-02-13T00:40:23.150Z,103854.56
2023-02-13T00:43:38.414Z,103852.88
2023-02-13T00:46:20.281Z,103854.91
2023-02-13T00:49:14.882Z,103840.75
2023-02-13T00:51:43.341Z,103853.22
2023-02-13T00:54:12.811Z,103843.25
2023-02-13T00:56:43.392Z,103844.28
2023-02-13T00:59:09.792Z,103846.81
2023-02-13T01:01:56.569Z,103845.97
2023-02-13T01:04:24.087Z,103843.09
2023-02-13T01:06:52.614Z,103844.13
2023-02-13T01:09:21.075Z,103841.56
2023-02-13T01:11:57.719Z,103847.81
2023-02-13T01:14:25.387Z,103847.16
2023-02-13T01:16:51.818Z,103848.16
2023-02-13T01:19:19.269Z,103849.00
2023-02-13T01:21:54.855Z,103848.84
2023-02-13T01:24:57.427Z,103851.88
2023-02-13T01:27:28.190Z,103849.31
2023-02-13T01:29:55.007Z,103839.41
2023-02-13T01:32:24.702Z,103845.13
2023-02-13T01:34:58.164Z,103838.03
2023-02-13T01:37:24.775Z,103840.06
2023-02-13T01:40:06.895Z,103850.69
2023-02-13T01:42:35.170Z,103841.75
2023-02-13T01:45:13.763Z,103843.44
2023-02-13T01:48:14.097Z,103838.72
2023-02-13T01:51:01.000Z,103834.34
2023-02-13T01:53:31.479Z,103833.34
2023-02-13T01:56:30.743Z,103830.44
2023-02-13T01:59:02.562Z,103826.94
2023-02-13T02:01:31.419Z,103828.59
2023-02-13T02:04:25.680Z,103820.66
2023-02-13T02:07:11.482Z,103824.56
2023-02-13T02:09:41.062Z,103821.88
2023-02-13T02:12:36.901Z,103824.72
2023-02-13T02:15:05.580Z,103826.41
2023-02-13T02:17:32.044Z,103819.50
2023-02-13T02:20:52.898Z,103824.72
2023-02-13T02:23:58.404Z,103819.16
2023-02-13T02:27:06.489Z,103825.25
2023-02-13T02:30:05.048Z,103818.50
2023-02-13T02:33:03.851Z,103824.72
2023-02-13T02:35:54.996Z,103825.91
2023-02-13T02:38:40.151Z,103819.66
2023-02-13T02:41:35.467Z,103818.16
2023-02-13T02:44:54.769Z,103812.09
2023-02-13T02:47:56.713Z,103812.09
2023-02-13T02:50:44.891Z,103816.63
2023-02-13T02:53:37.970Z,103819.16
2023-02-13T02:56:17.233Z,103814.59
2023-02-13T02:59:34.027Z,103806.69
2023-02-13T03:02:21.034Z,103806.34
2023-02-13T03:05:16.089Z,103809.72
2023-02-13T03:07:53.823Z,103797.59
2023-02-13T03:10:50.010Z,103806.50
2023-02-13T03:13:44.206Z,103807.72
2023-02-13T03:16:34.563Z,103804.69
2023-02-13T03:19:19.641Z,103809.06
2023-02-13T03:22:06.669Z,103806.34
2023-02-13T03:25:46.302Z,103809.88
2023-02-13T03:28:55.318Z,103810.06
2023-02-13T03:32:04.523Z,103812.75
2023-02-13T03:35:06.850Z,103810.75
2023-02-13T03:37:54.489Z,103807.03
2023-02-13T03:40:31.230Z,103809.53
2023-02-13T03:43:08.223Z,103803.31
2023-02-13T03:45:54.341Z,103809.53
2023-02-13T03:48:56.602Z,103812.44
2023-02-13T03:51:55.978Z,103812.09
2023-02-13T03:54:56.747Z,103812.09
2023-02-13T03:58:10.966Z,103805.16
2023-02-13T04:00:43.225Z,103814.44
2023-02-13T04:03:24.012Z,103812.25
2023-02-13T04:06:04.455Z,103808.38
2023-02-13T04:08:31.060Z,103805.69
2023-02-13T04:11:49.580Z,103808.38
2023-02-13T04:14:30.188Z,103801.13
2023-02-13T04:17:05.146Z,103798.59
2023-02-13T04:19:32.860Z,103800.28
2023-02-13T04:22:01.612Z,103807.38
2023-02-13T04:24:28.065Z,103809.41
2023-02-13T04:27:15.576Z,103809.41
2023-02-13T04:29:44.220Z,103811.91
2023-02-13T04:32:17.762Z,103799.28
2023-02-13T04:34:45.374Z,103796.59
2023-02-13T04:37:13.857Z,103805.34
2023-02-13T04:39:42.325Z,103801.66
2023-02-13T04:42:08.712Z,103802.47
2023-02-13T04:44:43.185Z,103804.34
2023-02-13T04:47:09.735Z,103804.34
2023-02-13T04:49:45.344Z,103796.25
2023-02-13T04:52:17.041Z,103796.25
2023-02-13T04:54:43.735Z,103790.84
2023-02-13T04:57:12.275Z,103790.84
2023-02-13T04:59:38.702Z,103786.97
2023-02-13T05:02:31.148Z,103782.59
2023-02-13T05:05:04.950Z,103785.28
2023-02-13T05:07:32.518Z,103779.22
2023-02-13T05:10:19.273Z,103778.38
2023-02-13T05:12:45.718Z,103782.78
2023-02-13T05:15:12.309Z,103773.00
2023-02-13T05:17:38.830Z,103772.81
2023-02-13T05:20:06.990Z,103771.78
2023-02-13T05:22:52.072Z,103774.34
2023-02-13T05:25:18.464Z,103774.34
2023-02-13T05:28:01.343Z,103774.50
2023-02-13T05:30:52.121Z,103774.69
2023-02-13T05:33:20.626Z,103766.75
2023-02-13T05:35:47.080Z,103770.28
2023-02-13T05:38:14.551Z,103772.31
2023-02-13T05:40:42.073Z,103771.47
2023-02-13T05:43:30.668Z,103772.47
2023-02-13T05:46:06.589Z,103776.03
2023-02-13T05:48:33.775Z,103767.94
2023-02-13T05:51:04.997Z,103768.75
2023-02-13T05:53:45.851Z,103773.34
2023-02-13T05:56:13.349Z,103776.03
2023-02-13T05:58:47.874Z,103774.16
2023-02-13T06:01:16.328Z,103767.94
2023-02-13T06:03:42.817Z,103767.94
2023-02-13T06:06:09.320Z,103769.63
2023-02-13T06:08:36.376Z,103778.38
2023-02-13T06:11:07.082Z,103773.00
2023-02-13T06:13:40.792Z,103768.28
2023-02-13T06:16:11.643Z,103765.91
2023-02-13T06:18:39.318Z,103770.44
2023-02-13T06:21:07.583Z,103764.91
2023-02-13T06:23:34.140Z,103774.69
2023-02-13T06:26:07.935Z,103771.78
2023-02-13T06:28:35.153Z,103770.63
2023-02-13T06:31:02.109Z,103774.16
2023-02-13T06:33:28.878Z,103773.13
2023-02-13T06:36:01.583Z,103781.91
2023-02-13T06:38:28.112Z,103774.00
2023-02-13T06:41:00.558Z,103777.19
2023-02-13T06:43:27.514Z,103781.75
2023-02-13T06:46:09.532Z,103782.44
2023-02-13T06:48:36.144Z,103784.13
2023-02-13T06:51:02.996Z,103777.72
2023-02-13T06:53:30.841Z,103776.03
2023-02-13T06:55:57.713Z,103783.09
2023-02-13T06:58:25.557Z,103784.78
2023-02-13T07:00:52.536Z,103781.09
2023-02-13T07:03:19.045Z,103790.19
2023-02-13T07:05:45.575Z,103788.50
2023-02-13T07:08:12.749Z,103794.72
2023-02-13T07:10:41.102Z,103797.25
2023-02-13T07:13:08.165Z,103792.69
2023-02-13T07:15:35.796Z,103795.38
2023-02-13T07:18:02.754Z,103799.97
2023-02-13T07:20:29.317Z,103802.31
2023-02-13T07:23:03.650Z,103800.78
2023-02-13T07:25:30.699Z,103797.94
2023-02-13T07:28:04.942Z,103796.91
2023-02-13T07:30:32.849Z,103792.00
2023-02-13T07:33:03.801Z,103792.88
2023-02-13T07:35:30.775Z,103789.16
2023-02-13T07:37:57.360Z,103794.22
2023-02-13T07:40:23.809Z,103793.88
2023-02-13T07:42:50.297Z,103793.88
2023-02-13T07:45:16.819Z,103795.56
2023-02-13T07:47:43.622Z,103796.25
2023-02-13T07:50:10.472Z,103802.31
2023-02-13T07:52:37.953Z,103799.25
2023-02-13T07:55:05.659Z,103804.47
2023-02-13T07:57:32.125Z,103806.00
2023-02-13T07:59:58.548Z,103805.81
2023-02-13T08:02:25.003Z,103802.94
2023-02-13T08:04:51.391Z,103808.00
2023-02-13T08:07:18.491Z,103812.22
2023-02-13T08:10:04.093Z,103816.41
2023-02-13T08:12:31.866Z,103813.56
2023-02-13T08:14:58.399Z,103818.78
2023-02-13T08:17:24.887Z,103821.13
2023-02-13T08:19:51.312Z,103829.91
2023-02-13T08:22:17.720Z,103834.28
2023-02-13T08:24:44.208Z,103826.84
2023-02-13T08:27:15.026Z,103829.22
2023-02-13T08:29:41.872Z,103827.03
2023-02-13T08:32:08.632Z,103820.41
2023-02-13T08:34:35.082Z,103819.06
2023-02-13T08:37:02.999Z,103828.34
2023-02-13T08:39:29.611Z,103829.69
2023-02-13T08:41:56.023Z,103826.78
2023-02-13T08:44:22.428Z,103829.16
2023-02-13T08:46:48.799Z,103824.22
2023-02-13T08:49:15.264Z,103826.41
2023-02-13T08:51:41.749Z,103831.28
2023-02-13T08:54:08.204Z,103829.09
2023-02-13T08:56:35.156Z,103834.81
2023-02-13T08:59:01.683Z,103825.34
2023-02-13T09:01:28.140Z,103821.75
2023-02-13T09:03:55.405Z,103825.97
2023-02-13T09:06:23.069Z,103836.41
2023-02-13T09:08:49.617Z,103825.53
2023-02-13T09:11:16.009Z,103823.78
2023-02-13T09:13:42.537Z,103829.47
2023-02-13T09:16:10.656Z,103833.66
2023-02-13T09:18:37.429Z,103836.13
2023-02-13T09:21:11.006Z,103825.53
2023-02-13T09:23:40.087Z,103825.19
2023-02-13T09:26:11.698Z,103829.28
2023-02-13T09:28:38.504Z,103827.59
2023-02-13T09:31:09.622Z,103825.75
2023-02-13T09:33:37.038Z,103829.28
2023-02-13T09:36:05.597Z,103827.59
2023-02-13T09:38:33.078Z,103820.50
2023-02-13T09:41:10.155Z,103822.91
2023-02-13T09:43:44.884Z,103819.84
2023-02-13T09:46:19.052Z,103818.81
2023-02-13T09:48:50.093Z,103818.44
2023-02-13T09:51:19.461Z,103813.19
2023-02-13T09:54:03.432Z,103821.78
2023-02-13T09:56:49.513Z,103822.91
2023-02-13T09:59:45.312Z,103825.53
2023-02-13T10:02:29.184Z,103823.25
2023-02-13T10:05:16.914Z,103828.31
2023-02-13T10:08:01.740Z,103827.09
2023-02-13T10:10:33.884Z,103815.53
2023-02-13T10:13:31.093Z,103819.38
2023-02-13T10:16:15.315Z,103822.38
2023-02-13T10:18:49.229Z,103827.00
2023-02-13T10:21:21.610Z,103822.44
2023-02-13T10:23:59.638Z,103826.66
2023-02-13T10:26:42.600Z,103826.28
2023-02-13T10:29:44.398Z,103826.84
2023-02-13T10:32:15.892Z,103818.81
2023-02-13T10:34:45.460Z,103813.59
2023-02-13T10:37:20.520Z,103810.69
2023-02-13T10:39:53.349Z,103809.84
2023-02-13T10:42:45.092Z,103811.53
2023-02-13T10:45:27.276Z,103802.66
2023-02-13T10:48:17.971Z,103799.19
2023-02-13T10:51:14.992Z,103803.84
2023-02-13T10:53:56.755Z,103798.06
2023-02-13T10:56:44.903Z,103796.06
2023-02-13T10:59:40.067Z,103797.84
2023-02-13T11:02:19.788Z,103800.34
2023-02-13T11:04:46.649Z,103796.06
2023-02-13T11:07:17.785Z,103792.22
2023-02-13T11:09:49.450Z,103791.44
2023-02-13T11:12:26.051Z,103786.53
2023-02-13T11:15:01.957Z,103777.00
2023-02-13T11:17:35.852Z,103780.84
2023-02-13T11:20:07.529Z,103778.38
2023-02-13T11:22:37.808Z,103773.03
2023-02-13T11:25:17.041Z,103774.75
2023-02-13T11:27:44.290Z,103770.28
2023-02-13T11:30:23.016Z,103766.78
2023-02-13T11:33:18.946Z,103761.59
2023-02-13T11:35:46.833Z,103766.84
2023-02-13T11:38:20.995Z,103762.66
2023-02-13T11:40:51.541Z,103758.31
2023-02-13T11:43:35.316Z,103749.94
2023-02-13T11:46:04.422Z,103745.81
2023-02-13T11:48:31.054Z,103752.91
2023-02-13T11:50:58.213Z,103742.09
2023-02-13T11:53:29.658Z,103745.91
2023-02-13T11:56:06.224Z,103742.13
2023-02-13T11:58:33.063Z,103743.38
2023-02-13T12:01:24.696Z,103737.50
2023-02-13T12:04:17.438Z,103735.47
2023-02-13T12:07:00.566Z,103728.19
2023-02-13T12:09:28.184Z,103717.16
2023-02-13T12:11:58.652Z,103719.72
2023-02-13T12:14:45.517Z,103717.66
2023-02-13T12:17:31.349Z,103713.47
2023-02-13T12:19:58.776Z,103716.22
2023-02-13T12:22:51.970Z,103719.63
2023-02-13T12:25:32.071Z,103717.78
2023-02-13T12:28:11.277Z,103713.63
2023-02-13T12:30:59.816Z,103716.97
2023-02-13T12:33:40.447Z,103718.25
2023-02-13T12:36:19.045Z,103719.94
2023-02-13T12:39:11.584Z,103719.44
2023-02-13T12:42:02.512Z,103710.66
2023-02-13T12:44:58.920Z,103713.81
2023-02-13T12:47:31.414Z,103705.22
2023-02-13T12:50:22.083Z,103712.31
2023-02-13T12:53:08.418Z,103704.41
2023-02-13T12:55:45.222Z,103707.53
2023-02-13T12:58:18.909Z,103703.09
2023-02-13T13:01:17.741Z,103701.81
2023-02-13T13:04:00.028Z,103698.47
2023-02-13T13:06:48.184Z,103693.47
2023-02-13T13:09:29.912Z,103688.63
2023-02-13T13:12:15.168Z,103679.91
2023-02-13T13:15:17.034Z,103677.59
2023-02-13T13:17:57.445Z,103677.19
2023-02-13T13:20:47.578Z,103672.19
2023-02-13T13:23:20.445Z,103667.81
2023-02-13T13:25:57.802Z,103659.03
2023-02-13T13:28:34.839Z,103657.97
2023-02-13T13:31:03.182Z,103657.56
2023-02-13T13:33:30.952Z,103657.56
2023-02-13T13:36:14.755Z,103652.13
2023-02-13T13:39:02.090Z,103647.53
2023-02-13T13:41:37.617Z,103641.28
2023-02-13T13:44:22.872Z,103641.06
2023-02-13T13:47:17.659Z,103636.69
2023-02-13T13:49:53.834Z,103644.22
2023-02-13T13:52:22.332Z,103640.03
2023-02-13T13:54:51.652Z,103631.06
2023-02-13T13:57:42.375Z,103631.28
2023-02-13T14:00:08.727Z,103638.78
2023-02-13T14:03:24.589Z,103632.94
2023-02-13T14:06:04.654Z,103620.78
2023-02-13T14:08:37.204Z,103624.81
2023-02-13T14:11:04.384Z,103622.50
2023-02-13T14:13:37.587Z,103611.56
2023-02-13T14:16:06.669Z,103619.06
2023-02-13T14:18:34.616Z,103608.09
2023-02-13T14:21:06.140Z,103611.25
2023-02-13T14:23:37.621Z,103605.16
2023-02-13T14:26:25.052Z,103591.34
2023-02-13T14:28:51.378Z,103597.91
2023-02-13T14:31:23.154Z,103600.75
2023-02-13T14:34:23.109Z,103604.34
2023-02-13T14:37:10.521Z,103596.59
2023-02-13T14:39:37.878Z,103601.59
2023-02-13T14:42:26.130Z,103610.09
2023-02-13T14:44:57.979Z,103599.25
2023-02-13T14:47:33.495Z,103604.75
2023-02-13T14:50:02.262Z,103601.41
2023-02-13T14:52:34.257Z,103601.38
2023-02-13T14:55:26.259Z,103593.31
2023-02-13T14:57:59.827Z,103593.69
2023-02-13T15:00:31.672Z,103586.16
2023-02-13T15:03:26.727Z,103583.91
2023-02-13T15:05:56.511Z,103591.06
2023-02-13T15:08:32.025Z,103584.41
2023-02-13T15:10:58.638Z,103586.91
2023-02-13T15:13:34.778Z,103596.78
2023-02-13T15:16:06.155Z,103593.41
2023-02-13T15:18:47.503Z,103588.19
2023-02-13T15:21:18.320Z,103594.88
2023-02-13T15:23:49.270Z,103599.88
2023-02-13T15:26:23.883Z,103597.78
2023-02-13T15:29:02.158Z,103592.31
2023-02-13T15:31:33.811Z,103596.91
2023-02-13T15:34:01.306Z,103585.81
2023-02-13T15:36:38.011Z,103586.44
2023-02-13T15:39:10.946Z,103583.91
2023-02-13T15:41:46.986Z,103598.31
2023-02-13T15:44:18.612Z,103590.16
2023-02-13T15:46:48.540Z,103583.66
2023-02-13T15:49:21.720Z,103588.66
2023-02-13T15:51:48.948Z,103582.59
2023-02-13T15:54:27.833Z,103585.09
2023-02-13T15:56:57.527Z,103580.88
2023-02-13T15:59:26.483Z,103574.00
2023-02-13T16:01:53.409Z,103580.03
2023-02-13T16:04:21.324Z,103581.47
2023-02-13T16:06:50.684Z,103578.13
2023-02-13T16:09:34.398Z,103579.13
2023-02-13T16:12:23.152Z,103578.25
2023-02-13T16:14:55.117Z,103572.59
2023-02-13T16:17:29.495Z,103584.50
2023-02-13T16:20:03.077Z,103578.78
2023-02-13T16:22:39.516Z,103581.91
2023-02-13T16:25:11.941Z,103577.50
2023-02-13T16:27:54.577Z,103575.75
2023-02-13T16:30:37.294Z,103576.34
2023-02-13T16:33:11.254Z,103581.28
2023-02-13T16:35:40.714Z,103577.03
2023-02-13T16:38:26.046Z,103581.16
2023-02-13T16:40:52.985Z,103582.53
2023-02-13T16:43:40.131Z,103580.16
2023-02-13T16:46:29.904Z,103583.78
2023-02-13T16:48:56.195Z,103579.72
2023-02-13T16:51:31.562Z,103573.16
2023-02-13T16:54:00.488Z,103583.25
2023-02-13T16:56:26.977Z,103577.94
2023-02-13T16:59:26.704Z,103582.84
2023-02-13T17:02:14.924Z,103589.13
2023-02-13T17:04:53.723Z,103590.66
2023-02-13T17:07:26.690Z,103596.16
2023-02-13T17:09:55.715Z,103593.53
2023-02-13T17:12:23.042Z,103590.91
2023-02-13T17:14:49.533Z,103602.47
2023-02-13T17:17:20.027Z,103599.03
2023-02-13T17:19:47.267Z,103606.38
2023-02-13T17:22:21.681Z,103606.28
2023-02-13T17:24:48.143Z,103608.84
2023-02-13T17:27:14.808Z,103602.16
2023-02-13T17:29:41.320Z,103613.88
2023-02-13T17:32:14.613Z,103609.41
2023-02-13T17:34:41.032Z,103599.13
2023-02-13T17:37:22.859Z,103603.56
2023-02-13T17:39:49.906Z,103599.41
2023-02-13T17:42:28.339Z,103603.19
2023-02-13T17:44:56.407Z,103604.94
2023-02-13T17:47:24.461Z,103598.22
2023-02-13T17:49:52.404Z,103600.59
2023-02-13T17:52:27.729Z,103605.69
2023-02-13T17:54:54.280Z,103607.06
2023-02-13T17:57:20.669Z,103607.78
2023-02-13T17:59:47.537Z,103601.44
2023-02-13T18:02:22.669Z,103604.47
2023-02-13T18:04:49.578Z,103592.56
2023-02-13T18:07:20.908Z,103608.59
2023-02-13T18:09:47.853Z,103599.00
2023-02-13T18:12:20.181Z,103592.75
2023-02-13T18:14:47.255Z,103591.44
2023-02-13T18:17:14.505Z,103595.50
2023-02-13T18:19:41.263Z,103594.19
2023-02-13T18:22:09.010Z,103596.59
2023-02-13T18:24:40.382Z,103592.56
2023-02-13T18:27:08.298Z,103605.38
2023-02-13T18:29:38.621Z,103602.38
2023-02-13T18:32:10.429Z,103604.56
2023-02-13T18:34:38.189Z,103606.13
2023-02-13T18:37:06.382Z,103612.69
2023-02-13T18:39:32.931Z,103606.16
2023-02-13T18:41:59.341Z,103602.13
2023-02-13T18:44:28.745Z,103604.13
2023-02-13T18:47:01.818Z,103601.94
2023-02-13T18:49:28.542Z,103600.59
2023-02-13T18:52:04.049Z,103605.69
2023-02-13T18:54:30.487Z,103604.84
2023-02-13T18:56:57.019Z,103610.59
2023-02-13T18:59:23.585Z,103601.16
2023-02-13T19:01:50.968Z,103606.06
2023-02-13T19:04:17.562Z,103606.41
2023-02-13T19:06:44.822Z,103602.19
2023-02-13T19:09:11.560Z,103601.72
2023-02-13T19:11:39.475Z,103600.03
2023-02-13T19:14:06.157Z,103595.13
2023-02-13T19:16:34.631Z,103589.06
2023-02-13T19:19:03.266Z,103584.38
2023-02-13T19:21:31.493Z,103589.09
2023-02-13T19:23:57.935Z,103588.25
2023-02-13T19:26:26.588Z,103585.00
2023-02-13T19:28:53.586Z,103592.44
2023-02-13T19:31:22.323Z,103585.34
2023-02-13T19:33:50.031Z,103587.38
2023-02-13T19:36:22.272Z,103583.19
2023-02-13T19:38:54.334Z,103582.66
2023-02-13T19:41:20.864Z,103586.38
2023-02-13T19:43:50.959Z,103585.72
2023-02-13T19:46:19.475Z,103591.44
2023-02-13T19:48:46.788Z,103596.16
2023-02-13T19:51:15.331Z,103590.25
2023-02-13T19:53:42.219Z,103591.44
2023-02-13T19:56:09.768Z,103588.09
2023-02-13T19:58:40.363Z,103595.16
2023-02-13T20:01:15.503Z,103593.97
2023-02-13T20:03:43.099Z,103596.50
2023-02-13T20:06:16.063Z,103588.06
2023-02-13T20:08:43.109Z,103589.25
2023-02-13T20:11:11.020Z,103590.44
2023-02-13T20:13:38.253Z,103598.16
2023-02-13T20:16:10.428Z,103598.31
2023-02-13T20:18:38.729Z,103608.56
2023-02-13T20:21:06.857Z,103595.47
2023-02-13T20:23:33.310Z,103597.47
2023-02-13T20:26:08.249Z,103594.09
2023-02-13T20:28:34.803Z,103599.81
2023-02-13T20:31:03.882Z,103603.50
2023-02-13T20:33:30.605Z,103600.47
2023-02-13T20:35:57.058Z,103600.81
2023-02-13T20:38:23.456Z,103608.03
2023-02-13T20:40:49.835Z,103610.88
2023-02-13T20:43:16.210Z,103603.66
2023-02-13T20:45:42.728Z,103612.88
2023-02-13T20:48:09.197Z,103613.19
2023-02-13T20:50:35.565Z,103611.00
2023-02-13T20:53:01.994Z,103614.69
2023-02-13T20:55:28.354Z,103615.84
2023-02-13T20:57:54.755Z,103612.47
2023-02-13T21:00:21.402Z,103616.19
2023-02-13T21:02:47.866Z,103619.19
2023-02-13T21:05:14.321Z,103617.50
2023-02-13T21:07:40.998Z,103625.56
2023-02-13T21:10:07.920Z,103619.50
2023-02-13T21:12:34.956Z,103615.47
2023-02-13T21:15:01.398Z,103628.22
2023-02-13T21:17:27.756Z,103624.03
2023-02-13T21:19:54.291Z,103628.91
2023-02-13T21:22:20.691Z,103630.91
2023-02-13T21:24:50.429Z,103635.59
2023-02-13T21:27:17.125Z,103636.59
2023-02-13T21:29:43.509Z,103636.59
2023-02-13T21:32:10.165Z,103627.16
2023-02-13T21:34:36.745Z,103622.78
2023-02-13T21:37:03.303Z,103622.25
2023-02-13T21:39:29.795Z,103623.22
2023-02-13T21:41:56.202Z,103623.53
2023-02-13T21:44:22.609Z,103624.72
2023-02-13T21:46:49.718Z,103627.72
2023-02-13T21:49:17.804Z,103623.66
2023-02-13T21:51:49.256Z,103621.66
2023-02-13T21:54:15.620Z,103617.44
2023-02-13T21:56:43.017Z,103625.50
2023-02-13T21:59:14.433Z,103626.34
2023-02-13T22:01:41.251Z,103612.38
2023-02-13T22:04:11.512Z,103615.22
2023-02-13T22:06:39.818Z,103613.00
2023-02-13T22:09:12.605Z,103608.47
2023-02-13T22:11:39.608Z,103610.31
2023-02-13T22:14:08.087Z,103614.19
2023-02-13T22:16:44.180Z,103616.81
2023-02-13T22:19:15.062Z,103610.75
2023-02-13T22:21:44.571Z,103614.28
2023-02-13T22:24:16.974Z,103610.69
2023-02-13T22:26:45.288Z,103606.16
2023-02-13T22:29:15.092Z,103614.69
2023-02-13T22:31:41.819Z,103595.88
2023-02-13T22:34:13.263Z,103603.13
2023-02-13T22:36:40.096Z,103598.56
2023-02-13T22:39:08.201Z,103591.50
2023-02-13T22:41:45.519Z,103599.75
2023-02-13T22:44:11.933Z,103598.88
2023-02-13T22:46:39.403Z,103593.81
2023-02-13T22:49:06.994Z,103591.31
2023-02-13T22:51:37.126Z,103584.41
2023-02-13T22:54:05.889Z,103588.25
2023-02-13T22:56:32.706Z,103587.41
2023-02-13T22:58:59.881Z,103596.44
2023-02-13T23:01:28.121Z,103584.31
2023-02-13T23:03:55.627Z,103596.75
2023-02-13T23:06:29.778Z,103586.31
2023-02-13T23:08:56.860Z,103580.44
2023-02-13T23:11:44.494Z,103583.25
2023-02-13T23:14:12.363Z,103579.38
2023-02-13T23:16:58.464Z,103585.91
2023-02-13T23:19:25.537Z,103579.84
2023-02-13T23:21:51.935Z,103590.59
2023-02-13T23:24:18.506Z,103591.59
2023-02-13T23:26:45.011Z,103596.09
2023-02-13T23:29:17.370Z,103598.09
2023-02-13T23:31:43.867Z,103595.88
2023-02-13T23:34:10.489Z,103588.81
2023-02-13T23:36:36.865Z,103598.72
2023-02-13T23:39:03.295Z,103594.50
2023-02-13T23:41:29.705Z,103584.59
2023-02-13T23:43:56.226Z,103589.44
2023-02-13T23:46:22.672Z,103594.25
2023-02-13T23:48:49.054Z,103594.56
2023-02-13T23:51:18.488Z,103595.72
2023-02-13T23:53:44.903Z,103593.34
2023-02-13T23:56:11.312Z,103593.47
2023-02-13T23:58:37.693Z,103594.66
